createdAt,value
2019-04-20T00:01:26.173Z,18.50
2019-04-20T00:04:49.399Z,18.30
2019-04-20T00:06:46.088Z,18.40
2019-04-20T00:12:20.316Z,18.40
2019-04-20T00:17:46.092Z,18.30
2019-04-20T00:20:38.714Z,18.20
2019-04-20T00:23:37.077Z,18.30
2019-04-20T00:25:53.186Z,18.20
2019-04-20T00:28:50.861Z,18.20
2019-04-20T00:31:30.745Z,18.20
2019-04-20T00:34:53.665Z,18.00
2019-04-20T00:36:22.083Z,18.00
2019-04-20T00:38:55.065Z,18.00
2019-04-20T00:41:24.241Z,18.00
2019-04-20T00:44:12.244Z,18.00
2019-04-20T00:46:41.243Z,18.00
2019-04-20T00:49:15.160Z,17.90
2019-04-20T00:52:00.484Z,17.80
2019-04-20T00:54:20.015Z,17.80
2019-04-20T00:57:07.828Z,17.80
2019-04-20T00:59:50.435Z,17.80
2019-04-20T01:02:22.183Z,17.80
2019-04-20T01:04:58.226Z,17.80
2019-04-20T01:07:39.486Z,17.80
2019-04-20T01:13:08.723Z,17.60
2019-04-20T01:20:45.239Z,17.50
2019-04-20T01:21:06.811Z,17.50
2019-04-20T01:23:22.215Z,17.80
2019-04-20T01:23:48.029Z,17.60
2019-04-20T01:26:20.814Z,17.50
2019-04-20T01:29:21.523Z,17.60
2019-04-20T01:35:18.371Z,17.50
2019-04-20T01:37:57.487Z,17.40
2019-04-20T01:40:27.490Z,17.20
2019-04-20T01:45:45.753Z,17.40
2019-04-20T01:48:39.962Z,17.20
2019-04-20T01:51:32.460Z,17.30
2019-04-20T01:54:26.096Z,17.50
2019-04-20T01:56:59.290Z,17.60
2019-04-20T01:59:48.200Z,17.50
2019-04-20T02:02:29.464Z,17.40
2019-04-20T02:05:08.052Z,17.40
2019-04-20T02:07:36.639Z,17.40
2019-04-20T02:10:09.765Z,17.40
2019-04-20T02:12:50.278Z,17.40
2019-04-20T02:15:30.076Z,17.10
2019-04-20T02:18:10.344Z,17.20
2019-04-20T02:20:44.253Z,17.00
2019-04-20T02:25:46.357Z,17.00
2019-04-20T02:28:36.210Z,17.00
2019-04-20T02:31:25.123Z,17.10
2019-04-20T02:34:29.240Z,17.10
2019-04-20T02:37:09.620Z,17.10
2019-04-20T02:39:46.798Z,17.00
2019-04-20T02:42:24.496Z,17.20
2019-04-20T02:45:28.929Z,17.10
2019-04-20T02:50:36.091Z,17.10
2019-04-20T02:53:15.622Z,17.00
2019-04-20T02:55:48.209Z,16.90
2019-04-20T02:58:23.884Z,16.80
2019-04-20T03:00:52.368Z,16.70
2019-04-20T03:09:11.288Z,16.90
2019-04-20T03:12:06.448Z,16.80
2019-04-20T03:14:23.990Z,16.80
2019-04-20T03:17:08.602Z,16.80
2019-04-20T03:19:28.629Z,16.80
2019-04-20T03:22:08.857Z,16.80
2019-04-20T03:24:44.231Z,16.80
2019-04-20T03:27:14.111Z,16.90
2019-04-20T03:30:22.802Z,16.90
2019-04-20T03:35:37.506Z,16.80
2019-04-20T03:38:06.142Z,16.70
2019-04-20T03:40:31.159Z,16.60
2019-04-20T03:42:44.705Z,16.70
2019-04-20T03:45:17.797Z,16.60
2019-04-20T03:47:58.714Z,16.70
2019-04-20T03:50:37.142Z,16.70
2019-04-20T03:53:12.983Z,16.60
2019-04-20T03:55:45.999Z,16.50
2019-04-20T03:58:20.954Z,16.40
2019-04-20T04:00:59.503Z,16.40
2019-04-20T04:06:15.900Z,16.50
2019-04-20T04:08:39.512Z,16.30
2019-04-20T04:11:22.043Z,16.30
2019-04-20T04:13:34.106Z,16.30
2019-04-20T04:16:07.918Z,16.30
2019-04-20T04:18:40.407Z,16.10
2019-04-20T04:21:09.857Z,16.20
2019-04-20T04:23:52.883Z,16.30
2019-04-20T04:26:24.080Z,16.30
2019-04-20T04:28:50.215Z,16.10
2019-04-20T04:31:28.033Z,16.10
2019-04-20T04:36:21.190Z,16.10
2019-04-20T04:39:00.956Z,16.10
2019-04-20T04:41:31.115Z,16.10
2019-04-20T04:43:53.777Z,16.00
2019-04-20T04:46:08.147Z,15.80
2019-04-20T04:48:41.197Z,15.80
2019-04-20T04:51:14.931Z,15.80
2019-04-20T04:53:47.794Z,15.80
2019-04-20T04:56:14.143Z,15.80
2019-04-20T04:58:38.489Z,15.80
2019-04-20T05:01:13.904Z,15.80
2019-04-20T05:04:04.466Z,15.80
2019-04-20T05:06:29.082Z,15.80
2019-04-20T05:08:47.420Z,15.70
2019-04-20T05:11:13.173Z,15.70
2019-04-20T05:13:48.538Z,15.70
2019-04-20T05:16:31.631Z,15.80
2019-04-20T05:19:05.052Z,15.80
2019-04-20T05:21:30.201Z,15.50
2019-04-20T05:24:07.526Z,15.60
2019-04-20T05:26:55.429Z,15.50
2019-04-20T05:29:11.787Z,15.60
2019-04-20T05:31:41.248Z,15.60
2019-04-20T05:34:25.682Z,15.60
2019-04-20T05:36:49.387Z,15.80
2019-04-20T05:41:53.156Z,15.80
2019-04-20T05:44:20.960Z,15.80
2019-04-20T05:47:02.822Z,15.90
2019-04-20T05:49:28.695Z,15.90
2019-04-20T05:51:56.295Z,16.00
2019-04-20T05:54:37.483Z,16.00
2019-04-20T05:57:05.605Z,16.10
2019-04-20T05:59:28.347Z,16.20
2019-04-20T06:02:03.471Z,16.20
2019-04-20T06:04:46.281Z,16.10
2019-04-20T06:06:59.718Z,16.30
2019-04-20T06:09:34.109Z,16.40
2019-04-20T06:14:48.234Z,16.50
2019-04-20T06:17:27.134Z,16.70
2019-04-20T06:19:58.234Z,16.60
2019-04-20T06:22:33.724Z,16.70
2019-04-20T06:25:19.174Z,16.60
2019-04-20T06:27:42.531Z,16.70
2019-04-20T06:30:08.874Z,16.70
2019-04-20T06:33:21.946Z,16.90
2019-04-20T06:36:05.986Z,17.00
2019-04-20T06:38:27.986Z,17.00
2019-04-20T06:40:54.150Z,17.10
2019-04-20T06:43:13.279Z,17.10
2019-04-20T06:45:51.121Z,17.40
2019-04-20T06:48:21.483Z,17.30
2019-04-20T06:50:43.931Z,17.30
2019-04-20T06:53:23.846Z,17.50
2019-04-20T06:56:02.599Z,17.60
2019-04-20T06:58:33.465Z,17.70
2019-04-20T07:00:46.530Z,17.50
2019-04-20T07:03:35.875Z,17.70
2019-04-20T07:06:01.869Z,17.60
2019-04-20T07:08:40.893Z,17.80
2019-04-20T07:10:59.337Z,18.10
2019-04-20T07:13:19.235Z,18.30
2019-04-20T07:15:52.022Z,18.10
2019-04-20T07:18:29.946Z,18.20
2019-04-20T07:21:09.527Z,18.30
2019-04-20T07:23:40.686Z,18.30
2019-04-20T07:26:10.464Z,18.60
2019-04-20T07:28:41.125Z,18.60
2019-04-20T07:31:09.712Z,18.80
2019-04-20T07:33:41.572Z,18.90
2019-04-20T07:36:14.874Z,19.10
2019-04-20T07:39:04.252Z,19.30
2019-04-20T07:41:16.499Z,19.50
2019-04-20T07:43:54.151Z,19.40
2019-04-20T07:46:23.601Z,19.60
2019-04-20T07:48:43.167Z,19.80
2019-04-20T07:51:04.811Z,19.90
2019-04-20T07:53:36.271Z,20.20
2019-04-20T07:56:16.335Z,20.40
2019-04-20T07:58:34.794Z,20.50
2019-04-20T08:01:23.807Z,20.70
2019-04-20T08:03:58.791Z,20.70
2019-04-20T08:06:35.316Z,20.90
2019-04-20T08:09:08.285Z,21.10
2019-04-20T08:11:52.740Z,21.30
2019-04-20T08:14:19.311Z,21.60
2019-04-20T08:17:09.898Z,21.90
2019-04-20T08:19:16.322Z,22.20
2019-04-20T08:21:48.428Z,22.20
2019-04-20T08:24:19.763Z,22.50
2019-04-20T08:26:36.029Z,22.70
2019-04-20T08:29:25.456Z,23.10
2019-04-20T08:32:04.406Z,23.20
2019-04-20T08:34:46.373Z,23.40
2019-04-20T08:37:05.993Z,23.50
2019-04-20T08:39:51.097Z,23.70
2019-04-20T08:42:11.571Z,24.00
2019-04-20T08:47:37.855Z,24.50
2019-04-20T08:53:03.806Z,25.00
2019-04-20T08:55:12.257Z,25.30
2019-04-20T08:57:25.016Z,25.40
2019-04-20T08:59:54.407Z,25.30
2019-04-20T09:02:23.961Z,25.60
2019-04-20T09:05:02.417Z,25.90
2019-04-20T09:07:26.987Z,26.20
2019-04-20T09:10:16.530Z,26.40
2019-04-20T09:12:40.938Z,26.90
2019-04-20T09:14:55.160Z,27.30
2019-04-20T09:17:41.129Z,27.40
2019-04-20T09:20:10.548Z,27.80
2019-04-20T09:22:45.673Z,28.20
2019-04-20T09:25:42.784Z,28.40
2019-04-20T09:27:48.798Z,28.60
2019-04-20T09:30:25.674Z,28.80
2019-04-20T09:33:09.643Z,29.00
2019-04-20T09:35:38.986Z,29.30
2019-04-20T09:38:10.345Z,29.30
2019-04-20T09:40:43.461Z,29.70
2019-04-20T09:43:06.676Z,29.90
2019-04-20T09:45:48.009Z,30.10
2019-04-20T09:48:18.343Z,30.10
2019-04-20T09:51:04.978Z,30.50
2019-04-20T09:53:29.877Z,30.70
2019-04-20T09:56:01.943Z,30.80
2019-04-20T09:58:26.240Z,31.00
2019-04-20T10:01:01.724Z,31.00
2019-04-20T10:03:16.524Z,31.40
2019-04-20T10:05:45.604Z,31.40
2019-04-20T10:08:15.536Z,31.80
2019-04-20T10:10:45.938Z,32.10
2019-04-20T10:13:15.415Z,32.50
2019-04-20T10:15:44.019Z,32.80
2019-04-20T10:18:14.116Z,32.90
2019-04-20T10:20:44.027Z,33.20
2019-04-20T10:23:14.321Z,33.60
2019-04-20T10:25:43.053Z,34.00
2019-04-20T10:28:11.822Z,34.20
2019-04-20T10:30:40.853Z,34.40
2019-04-20T10:33:09.915Z,34.60
2019-04-20T10:35:39.417Z,34.60
2019-04-20T10:38:09.979Z,34.60
2019-04-20T10:40:50.727Z,34.70
2019-04-20T10:43:10.215Z,34.80
2019-04-20T10:45:39.234Z,34.90
2019-04-20T10:48:08.935Z,35.20
2019-04-20T10:50:38.967Z,35.20
2019-04-20T10:53:08.000Z,35.20
2019-04-20T10:55:37.727Z,35.20
2019-04-20T10:58:07.307Z,35.20
2019-04-20T11:00:39.722Z,35.30
2019-04-20T11:03:10.033Z,35.20
2019-04-20T11:05:40.632Z,35.10
2019-04-20T11:08:10.697Z,35.20
2019-04-20T11:10:55.632Z,35.30
2019-04-20T11:13:11.746Z,35.20
2019-04-20T11:15:42.232Z,35.10
2019-04-20T11:18:11.397Z,35.10
2019-04-20T11:20:41.386Z,35.40
2019-04-20T11:23:10.788Z,35.60
2019-04-20T11:25:40.039Z,35.50
2019-04-20T11:28:10.118Z,35.40
2019-04-20T11:30:40.352Z,35.20
2019-04-20T11:33:09.954Z,35.30
2019-04-20T11:35:41.636Z,35.40
2019-04-20T11:38:12.002Z,35.60
2019-04-20T11:40:39.331Z,35.70
2019-04-20T11:43:07.998Z,36.00
2019-04-20T11:45:36.560Z,36.50
2019-04-20T11:48:05.757Z,36.80
2019-04-20T11:50:35.592Z,36.80
2019-04-20T11:53:05.356Z,36.70
2019-04-20T11:55:34.167Z,36.80
2019-04-20T11:58:03.796Z,36.90
2019-04-20T12:00:47.187Z,36.90
2019-04-20T12:03:24.809Z,36.90
2019-04-20T12:05:53.246Z,36.90
2019-04-20T12:08:17.160Z,36.70
2019-04-20T12:10:49.266Z,36.80
2019-04-20T12:13:16.482Z,36.60
2019-04-20T12:15:45.524Z,36.70
2019-04-20T12:18:15.641Z,36.60
2019-04-20T12:20:44.989Z,36.60
2019-04-20T12:23:13.581Z,36.70
2019-04-20T12:25:43.211Z,36.60
2019-04-20T12:28:13.688Z,36.50
2019-04-20T12:30:43.781Z,36.50
2019-04-20T12:33:13.589Z,36.30
2019-04-20T12:35:42.632Z,36.50
2019-04-20T12:38:12.425Z,36.60
2019-04-20T12:40:42.023Z,36.50
2019-04-20T12:43:11.099Z,36.70
2019-04-20T12:45:40.049Z,36.60
2019-04-20T12:48:08.605Z,36.70
2019-04-20T12:50:37.453Z,36.80
2019-04-20T12:53:06.511Z,37.00
2019-04-20T12:55:35.207Z,37.30
2019-04-20T12:58:04.899Z,37.40
2019-04-20T13:00:45.916Z,37.70
2019-04-20T13:03:14.809Z,37.60
2019-04-20T13:05:44.108Z,37.00
2019-04-20T13:08:20.885Z,37.10
2019-04-20T13:10:46.575Z,37.50
2019-04-20T13:13:36.517Z,37.50
2019-04-20T13:16:08.183Z,37.60
2019-04-20T13:18:39.240Z,37.80
2019-04-20T13:21:09.184Z,38.20
2019-04-20T13:23:38.025Z,38.30
2019-04-20T13:26:08.683Z,38.70
2019-04-20T13:28:37.150Z,38.60
2019-04-20T13:31:06.131Z,38.90
2019-04-20T13:33:34.874Z,39.10
2019-04-20T13:36:04.104Z,38.80
2019-04-20T13:38:34.154Z,38.50
2019-04-20T13:41:04.113Z,38.40
2019-04-20T13:43:32.778Z,38.60
2019-04-20T13:46:02.576Z,38.80
2019-04-20T13:48:31.835Z,38.90
2019-04-20T13:51:02.307Z,39.00
2019-04-20T13:53:31.212Z,38.90
2019-04-20T13:55:59.862Z,38.80
2019-04-20T13:58:43.282Z,38.90
2019-04-20T14:01:16.854Z,38.70
2019-04-20T14:03:47.263Z,38.90
2019-04-20T14:06:16.611Z,39.30
2019-04-20T14:08:45.558Z,39.30
2019-04-20T14:11:15.331Z,39.50
2019-04-20T14:13:53.001Z,39.70
2019-04-20T14:16:14.762Z,39.80
2019-04-20T14:18:44.733Z,39.60
2019-04-20T14:21:14.245Z,39.50
2019-04-20T14:23:43.214Z,39.30
2019-04-20T14:26:12.624Z,38.90
2019-04-20T14:28:41.431Z,38.40
2019-04-20T14:31:10.102Z,37.90
2019-04-20T14:33:39.121Z,38.10
2019-04-20T14:36:08.772Z,38.10
2019-04-20T14:38:38.334Z,37.80
2019-04-20T14:41:08.381Z,37.40
2019-04-20T14:43:38.580Z,37.50
2019-04-20T14:46:08.512Z,37.60
2019-04-20T14:48:38.493Z,37.50
2019-04-20T14:51:07.707Z,37.30
2019-04-20T14:53:37.680Z,37.50
2019-04-20T14:56:07.357Z,37.50
2019-04-20T14:58:53.630Z,37.00
2019-04-20T15:01:26.911Z,36.80
2019-04-20T15:03:59.831Z,36.70
2019-04-20T15:06:25.905Z,36.70
2019-04-20T15:08:54.762Z,37.10
2019-04-20T15:11:24.765Z,37.30
2019-04-20T15:13:53.647Z,37.30
2019-04-20T15:16:22.537Z,37.40
2019-04-20T15:18:59.815Z,37.20
2019-04-20T15:21:31.407Z,37.00
2019-04-20T15:24:01.615Z,37.00
2019-04-20T15:26:30.742Z,37.30
2019-04-20T15:29:00.020Z,37.50
2019-04-20T15:31:29.859Z,37.40
2019-04-20T15:33:59.091Z,37.50
2019-04-20T15:36:28.444Z,37.50
2019-04-20T15:38:57.201Z,37.30
2019-04-20T15:41:27.350Z,37.00
2019-04-20T15:43:57.319Z,36.80
2019-04-20T15:46:27.612Z,37.10
2019-04-20T15:48:57.692Z,36.90
2019-04-20T15:51:27.805Z,36.80
2019-04-20T15:53:57.725Z,36.60
2019-04-20T15:56:26.883Z,36.30
2019-04-20T15:58:56.639Z,35.80
2019-04-20T16:01:28.294Z,35.90
2019-04-20T16:04:01.884Z,35.80
2019-04-20T16:06:31.571Z,35.60
2019-04-20T16:09:02.097Z,35.20
2019-04-20T16:11:31.079Z,34.80
2019-04-20T16:14:00.191Z,34.70
2019-04-20T16:16:30.085Z,34.30
2019-04-20T16:18:59.099Z,34.20
2019-04-20T16:21:30.212Z,34.20
2019-04-20T16:24:01.155Z,34.10
2019-04-20T16:26:31.668Z,33.80
2019-04-20T16:29:01.707Z,33.40
2019-04-20T16:31:30.894Z,33.20
2019-04-20T16:33:59.647Z,32.80
2019-04-20T16:36:28.545Z,32.50
2019-04-20T16:38:57.417Z,32.20
2019-04-20T16:41:26.459Z,31.90
2019-04-20T16:43:55.463Z,31.50
2019-04-20T16:46:25.686Z,31.20
2019-04-20T16:48:55.059Z,30.90
2019-04-20T16:51:24.982Z,30.50
2019-04-20T16:53:54.041Z,30.20
2019-04-20T16:56:22.664Z,29.90
2019-04-20T16:58:57.313Z,29.90
2019-04-20T17:01:21.631Z,29.70
2019-04-20T17:03:59.819Z,29.50
2019-04-20T17:06:22.301Z,29.10
2019-04-20T17:08:51.397Z,29.00
2019-04-20T17:11:21.523Z,28.80
2019-04-20T17:13:54.747Z,28.70
2019-04-20T17:16:21.862Z,28.40
2019-04-20T17:18:51.959Z,28.20
2019-04-20T17:21:25.046Z,28.30
2019-04-20T17:23:51.446Z,28.10
2019-04-20T17:26:23.025Z,27.90
2019-04-20T17:28:55.522Z,27.80
2019-04-20T17:31:25.365Z,27.80
2019-04-20T17:34:06.512Z,27.80
2019-04-20T17:36:30.922Z,27.60
2019-04-20T17:39:00.569Z,27.50
2019-04-20T17:41:45.584Z,27.30
2019-04-20T17:44:17.354Z,27.10
2019-04-20T17:46:41.333Z,26.70
2019-04-20T17:49:14.785Z,26.80
2019-04-20T17:51:53.471Z,26.90
2019-04-20T17:54:05.321Z,26.70
2019-04-20T17:56:32.464Z,26.30
2019-04-20T17:59:02.012Z,26.40
2019-04-20T18:01:56.431Z,26.50
2019-04-20T18:04:50.335Z,26.60
2019-04-20T18:07:04.434Z,26.50
2019-04-20T18:09:46.252Z,26.30
2019-04-20T18:11:56.321Z,26.20
2019-04-20T18:14:37.437Z,26.10
2019-04-20T18:17:30.512Z,26.10
2019-04-20T18:19:54.502Z,26.00
2019-04-20T18:22:23.598Z,26.00
2019-04-20T18:25:13.477Z,26.00
2019-04-20T18:27:41.555Z,25.90
2019-04-20T18:30:12.101Z,25.70
2019-04-20T18:32:27.445Z,25.60
2019-04-20T18:35:01.433Z,25.50
2019-04-20T18:37:28.821Z,25.50
2019-04-20T18:40:04.649Z,25.40
2019-04-20T18:42:36.767Z,25.20
2019-04-20T18:45:17.315Z,25.20
2019-04-20T18:47:49.576Z,25.00
2019-04-20T18:50:09.480Z,25.10
2019-04-20T18:52:31.534Z,25.00
2019-04-20T18:55:01.674Z,25.00
2019-04-20T18:57:32.738Z,25.00
2019-04-20T19:00:02.386Z,24.80
2019-04-20T19:02:35.387Z,24.70
2019-04-20T19:05:03.446Z,24.70
2019-04-20T19:07:40.116Z,24.70
2019-04-20T19:10:12.910Z,24.50
2019-04-20T19:12:41.519Z,24.50
2019-04-20T19:15:37.344Z,24.30
2019-04-20T19:18:00.876Z,24.20
2019-04-20T19:20:23.811Z,24.10
2019-04-20T19:22:52.444Z,24.20
2019-04-20T19:25:39.359Z,24.10
2019-04-20T19:28:08.825Z,23.90
2019-04-20T19:30:55.726Z,23.70
2019-04-20T19:33:33.183Z,23.50
2019-04-20T19:35:58.112Z,23.30
2019-04-20T19:38:29.449Z,23.50
2019-04-20T19:41:02.154Z,23.40
2019-04-20T19:43:30.964Z,23.50
2019-04-20T19:46:35.560Z,23.40
2019-04-20T19:48:40.647Z,23.40
2019-04-20T19:51:27.257Z,23.20
2019-04-20T19:53:54.480Z,23.20
2019-04-20T19:56:17.085Z,23.00
2019-04-20T19:58:53.322Z,23.00
2019-04-20T20:01:07.678Z,22.80
2019-04-20T20:03:39.574Z,22.70
2019-04-20T20:06:11.021Z,22.70
2019-04-20T20:08:40.497Z,22.70
2019-04-20T20:11:21.720Z,22.90
2019-04-20T20:13:46.216Z,22.80
2019-04-20T20:16:20.221Z,22.60
2019-04-20T20:18:57.249Z,22.60
2019-04-20T20:21:31.820Z,22.60
2019-04-20T20:23:50.139Z,22.40
2019-04-20T20:26:33.453Z,22.40
2019-04-20T20:29:13.443Z,22.30
2019-04-20T20:34:43.369Z,22.10
2019-04-20T20:37:37.658Z,22.00
2019-04-20T20:40:28.706Z,22.00
2019-04-20T20:43:06.475Z,21.80
2019-04-20T20:45:39.631Z,21.80
2019-04-20T20:48:30.028Z,21.60
2019-04-20T20:51:03.819Z,21.40
2019-04-20T20:53:40.014Z,21.40
2019-04-20T20:56:22.607Z,21.40
2019-04-20T20:59:09.516Z,21.40
2019-04-20T21:01:46.453Z,21.10
2019-04-20T21:04:11.870Z,21.00
2019-04-20T21:06:48.724Z,21.10
2019-04-20T21:09:41.662Z,21.20
2019-04-20T21:12:15.995Z,21.20
2019-04-20T21:14:45.477Z,21.10
2019-04-20T21:17:39.331Z,21.00
2019-04-20T21:20:20.374Z,21.10
2019-04-20T21:22:57.493Z,21.20
2019-04-20T21:25:34.612Z,21.00
2019-04-20T21:28:04.773Z,20.90
2019-04-20T21:30:48.347Z,20.80
2019-04-20T21:33:37.835Z,20.90
2019-04-20T21:36:31.318Z,20.80
2019-04-20T21:39:16.492Z,20.70
2019-04-20T21:44:45.340Z,20.50
2019-04-20T21:47:15.741Z,20.50
2019-04-20T21:49:57.965Z,20.50
2019-04-20T21:58:53.126Z,20.50
2019-04-20T22:16:20.782Z,20.20
2019-04-20T22:36:01.118Z,20.20
2019-04-20T22:38:28.900Z,20.10
2019-04-20T22:41:06.625Z,19.80
2019-04-20T22:43:33.714Z,19.20
2019-04-20T22:46:09.540Z,18.70
2019-04-20T22:49:16.540Z,18.60
2019-04-20T22:51:41.339Z,18.90
2019-04-20T22:54:21.905Z,19.10
2019-04-20T22:56:50.947Z,19.20
2019-04-20T22:59:23.304Z,19.20
2019-04-20T23:01:56.219Z,19.20
2019-04-20T23:04:34.914Z,19.00
2019-04-20T23:07:05.230Z,18.80
2019-04-20T23:09:43.841Z,18.80
2019-04-20T23:12:10.171Z,18.70
2019-04-20T23:14:40.389Z,18.60
2019-04-20T23:17:10.609Z,18.60
2019-04-20T23:19:49.510Z,18.70
2019-04-20T23:22:16.111Z,18.70
2019-04-20T23:24:47.144Z,18.60
2019-04-20T23:27:23.395Z,18.70
2019-04-20T23:29:46.958Z,18.60
2019-04-20T23:32:17.757Z,18.40
2019-04-20T23:34:49.055Z,18.30
2019-04-20T23:37:24.586Z,18.20
2019-04-20T23:39:50.884Z,18.10
2019-04-20T23:42:42.441Z,18.10
2019-04-20T23:45:13.911Z,18.20
2019-04-20T23:48:01.300Z,18.20
2019-04-20T23:50:50.701Z,17.90
2019-04-20T23:53:28.477Z,18.00
2019-04-20T23:55:45.723Z,18.10
2019-04-20T23:58:17.767Z,17.70
